createdAt,value
2018-05-07T00:02:31.962Z,3.07
2018-05-07T00:05:00.366Z,3.50
2018-05-07T00:07:31.984Z,3.17
2018-05-07T00:10:00.107Z,2.93
2018-05-07T00:12:30.003Z,3.20
2018-05-07T00:14:58.132Z,3.10
2018-05-07T00:17:28.570Z,3.03
2018-05-07T00:19:57.025Z,3.60
2018-05-07T00:22:25.669Z,3.40
2018-05-07T00:24:53.414Z,3.10
2018-05-07T00:27:32.951Z,3.00
2018-05-07T00:30:01.933Z,3.30
2018-05-07T00:32:35.622Z,3.50
2018-05-07T00:35:03.725Z,3.67
2018-05-07T00:37:41.367Z,3.07
2018-05-07T00:40:09.795Z,3.67
2018-05-07T00:42:50.593Z,3.57
2018-05-07T00:45:18.314Z,3.37
2018-05-07T00:47:48.687Z,3.47
2018-05-07T00:50:17.903Z,3.83
2018-05-07T00:52:53.915Z,3.53
2018-05-07T00:55:22.802Z,3.20
2018-05-07T00:57:55.927Z,3.47
2018-05-07T01:00:24.959Z,3.60
2018-05-07T01:02:52.648Z,3.47
2018-05-07T01:05:21.064Z,3.27
2018-05-07T01:07:59.114Z,3.17
2018-05-07T01:10:27.930Z,3.33
2018-05-07T01:12:57.383Z,2.67
2018-05-07T01:15:25.814Z,3.30
2018-05-07T01:17:56.266Z,3.63
2018-05-07T01:20:24.707Z,3.97
2018-05-07T01:23:04.359Z,3.50
2018-05-07T01:25:32.837Z,3.50
2018-05-07T01:28:04.412Z,3.47
2018-05-07T01:30:33.248Z,3.20
2018-05-07T01:33:00.885Z,3.40
2018-05-07T01:35:29.272Z,3.93
2018-05-07T01:38:03.063Z,3.77
2018-05-07T01:40:30.686Z,3.50
2018-05-07T01:43:00.156Z,3.50
2018-05-07T01:45:28.211Z,3.50
2018-05-07T01:48:11.175Z,3.37
2018-05-07T01:50:39.612Z,3.93
2018-05-07T01:53:08.052Z,3.60
2018-05-07T01:55:36.140Z,3.70
2018-05-07T01:58:04.947Z,3.90
2018-05-07T02:00:33.006Z,3.97
2018-05-07T02:03:10.137Z,3.80
2018-05-07T02:05:38.254Z,3.60
2018-05-07T02:08:08.288Z,3.40
2018-05-07T02:10:36.454Z,3.47
2018-05-07T02:15:58.953Z,4.00
2018-05-07T02:18:26.993Z,4.30
2018-05-07T02:21:04.998Z,4.30
2018-05-07T02:23:33.437Z,3.87
2018-05-07T02:34:36.850Z,3.97
2018-05-07T02:37:04.933Z,3.83
2018-05-07T02:39:37.412Z,3.70
2018-05-07T02:42:05.871Z,3.90
2018-05-07T02:44:55.012Z,3.80
2018-05-07T02:47:23.094Z,3.77
2018-05-07T02:49:51.555Z,3.83
2018-05-07T02:52:19.987Z,3.87
2018-05-07T02:54:48.865Z,4.27
2018-05-07T02:57:18.043Z,4.30
2018-05-07T02:59:49.792Z,3.50
2018-05-07T03:02:17.449Z,3.93
2018-05-07T03:04:45.918Z,4.13
2018-05-07T03:07:14.366Z,3.73
2018-05-07T03:09:42.837Z,3.87
2018-05-07T03:12:11.259Z,4.33
2018-05-07T03:14:38.955Z,3.90
2018-05-07T03:17:08.210Z,3.97
2018-05-07T03:19:45.157Z,4.50
2018-05-07T03:22:13.593Z,4.60
2018-05-07T03:24:50.017Z,4.00
2018-05-07T03:27:19.114Z,3.13
2018-05-07T03:29:49.188Z,3.23
2018-05-07T03:32:17.597Z,4.40
2018-05-07T03:34:50.858Z,3.30
2018-05-07T03:37:18.528Z,4.17
2018-05-07T03:40:07.095Z,4.03
2018-05-07T03:42:35.105Z,4.07
2018-05-07T03:45:24.180Z,3.80
2018-05-07T03:47:53.329Z,3.90
2018-05-07T03:50:32.749Z,3.73
2018-05-07T03:53:01.158Z,4.13
2018-05-07T03:55:37.995Z,4.17
2018-05-07T03:58:06.043Z,4.10
2018-05-07T04:00:35.186Z,3.90
2018-05-07T04:03:03.590Z,4.13
2018-05-07T04:05:35.243Z,4.13
2018-05-07T04:08:02.857Z,3.90
2018-05-07T04:10:35.628Z,3.80
2018-05-07T04:13:04.623Z,4.30
2018-05-07T04:15:44.008Z,4.60
2018-05-07T04:18:25.316Z,4.30
2018-05-07T04:21:12.250Z,4.13
2018-05-07T04:23:54.084Z,3.83
2018-05-07T04:26:22.855Z,4.20
2018-05-07T04:28:56.052Z,3.70
2018-05-07T04:31:24.514Z,4.17
2018-05-07T04:33:52.968Z,3.83
2018-05-07T04:36:21.837Z,4.30
2018-05-07T04:38:49.959Z,4.30
2018-05-07T04:41:18.347Z,4.60
2018-05-07T04:43:50.182Z,4.23
2018-05-07T04:46:18.602Z,4.87
2018-05-07T04:48:48.101Z,3.77
2018-05-07T04:51:16.117Z,4.30
2018-05-07T04:53:43.800Z,4.77
2018-05-07T04:56:12.218Z,3.93
2018-05-07T04:58:41.742Z,4.53
2018-05-07T05:01:09.440Z,3.97
2018-05-07T05:03:43.853Z,4.30
2018-05-07T05:06:12.272Z,5.03
2018-05-07T05:08:41.338Z,5.17
2018-05-07T05:11:09.790Z,4.53
2018-05-07T05:13:38.260Z,4.60
2018-05-07T05:16:06.311Z,4.07
2018-05-07T05:18:34.333Z,4.07
2018-05-07T05:21:02.579Z,3.47
2018-05-07T05:23:31.257Z,4.00
2018-05-07T05:25:59.723Z,3.90
2018-05-07T05:28:34.876Z,4.07
2018-05-07T05:31:03.281Z,4.17
2018-05-07T05:33:31.724Z,4.00
2018-05-07T05:36:00.899Z,4.27
2018-05-07T05:38:32.353Z,4.17
2018-05-07T05:41:00.739Z,3.20
2018-05-07T05:43:31.291Z,3.80
2018-05-07T05:45:59.693Z,3.87
2018-05-07T05:48:30.501Z,3.87
2018-05-07T05:50:58.931Z,3.50
2018-05-07T05:53:30.270Z,4.00
2018-05-07T05:55:57.920Z,3.67
2018-05-07T05:58:27.034Z,3.80
2018-05-07T06:00:54.706Z,4.03
2018-05-07T06:03:25.107Z,3.40
2018-05-07T06:05:53.557Z,3.83
2018-05-07T06:08:22.075Z,3.70
2018-05-07T06:10:49.781Z,3.57
2018-05-07T06:13:17.885Z,3.80
2018-05-07T06:15:46.673Z,3.20
2018-05-07T06:18:15.725Z,4.03
2018-05-07T06:20:44.156Z,3.90
2018-05-07T06:23:12.876Z,3.43
2018-05-07T06:25:40.578Z,3.40
2018-05-07T06:28:08.633Z,3.17
2018-05-07T06:30:36.716Z,3.63
2018-05-07T06:33:06.887Z,3.00
2018-05-07T06:35:34.954Z,3.17
2018-05-07T06:38:03.839Z,3.33
2018-05-07T06:40:31.506Z,3.17
2018-05-07T06:43:00.591Z,2.67
2018-05-07T06:45:29.005Z,2.93
2018-05-07T06:47:57.449Z,3.07
2018-05-07T06:50:26.257Z,3.40
2018-05-07T06:53:05.744Z,2.87
2018-05-07T06:55:34.763Z,2.63
2018-05-07T06:58:04.191Z,3.07
2018-05-07T07:00:32.649Z,2.83
2018-05-07T07:03:02.077Z,2.67
2018-05-07T07:05:29.788Z,2.40
2018-05-07T07:07:58.909Z,2.87
2018-05-07T07:10:27.478Z,2.90
2018-05-07T07:12:59.462Z,2.47
2018-05-07T07:15:27.169Z,2.63
2018-05-07T07:17:56.637Z,2.60
2018-05-07T07:20:25.074Z,2.73
2018-05-07T07:22:53.117Z,2.90
2018-05-07T07:25:22.263Z,3.03
2018-05-07T07:27:51.181Z,2.97
2018-05-07T07:30:19.986Z,2.57
2018-05-07T07:32:48.438Z,2.73
2018-05-07T07:35:17.256Z,2.50
2018-05-07T07:37:46.708Z,2.63
2018-05-07T07:40:15.139Z,2.43
2018-05-07T07:42:43.609Z,2.43
2018-05-07T07:45:12.022Z,2.63
2018-05-07T07:47:41.072Z,2.57
2018-05-07T07:50:09.945Z,2.23
2018-05-07T07:52:38.443Z,2.00
2018-05-07T07:55:06.468Z,2.40
2018-05-07T07:57:37.786Z,2.23
2018-05-07T08:00:07.021Z,2.23
2018-05-07T08:02:36.493Z,2.27
2018-05-07T08:05:04.589Z,2.33
2018-05-07T08:07:39.837Z,2.53
2018-05-07T08:10:08.624Z,2.27
2018-05-07T08:12:39.777Z,2.40
2018-05-07T08:15:08.936Z,2.40
2018-05-07T08:17:36.612Z,2.77
2018-05-07T08:20:05.435Z,2.20
2018-05-07T08:22:33.846Z,2.40
2018-05-07T08:25:01.579Z,2.50
2018-05-07T08:27:32.408Z,2.90
2018-05-07T08:30:00.868Z,2.43
2018-05-07T08:32:28.587Z,2.73
2018-05-07T08:34:56.816Z,2.40
2018-05-07T08:37:25.852Z,2.43
2018-05-07T08:39:53.709Z,2.30
2018-05-07T08:42:22.605Z,2.70
2018-05-07T08:44:50.606Z,2.47
2018-05-07T08:47:19.466Z,2.70
2018-05-07T08:49:47.241Z,3.67
2018-05-07T08:52:15.759Z,2.90
2018-05-07T08:54:44.917Z,2.70
2018-05-07T08:57:15.038Z,2.50
2018-05-07T08:59:44.064Z,2.67
2018-05-07T09:02:12.515Z,2.30
2018-05-07T09:04:40.583Z,2.53
2018-05-07T09:07:11.082Z,2.40
2018-05-07T09:09:39.206Z,2.60
2018-05-07T09:12:07.708Z,2.70
2018-05-07T09:14:36.763Z,2.13
2018-05-07T09:17:06.145Z,2.60
2018-05-07T09:19:34.592Z,2.53
2018-05-07T09:22:02.307Z,2.53
2018-05-07T09:24:31.286Z,2.30
2018-05-07T09:26:59.872Z,2.90
2018-05-07T09:29:28.382Z,2.47
2018-05-07T09:31:56.447Z,2.30
2018-05-07T09:34:25.635Z,2.70
2018-05-07T09:36:55.889Z,2.30
2018-05-07T09:39:24.714Z,3.07
2018-05-07T09:41:57.005Z,2.30
2018-05-07T09:44:25.102Z,2.30
2018-05-07T09:46:53.558Z,3.43
2018-05-07T09:49:22.833Z,2.80
2018-05-07T09:51:57.533Z,2.30
2018-05-07T09:54:26.008Z,2.33
2018-05-07T09:56:55.681Z,2.20
2018-05-07T09:59:24.487Z,2.37
2018-05-07T10:01:53.402Z,2.13
2018-05-07T10:04:21.780Z,2.00
2018-05-07T10:06:51.326Z,2.50
2018-05-07T10:09:19.557Z,2.50
2018-05-07T10:11:48.064Z,3.10
2018-05-07T10:14:16.576Z,2.40
2018-05-07T10:16:44.604Z,1.80
2018-05-07T10:19:13.403Z,2.87
2018-05-07T10:21:42.445Z,2.37
2018-05-07T10:24:10.612Z,2.43
2018-05-07T10:26:39.750Z,2.90
2018-05-07T10:29:07.957Z,2.70
2018-05-07T10:31:37.149Z,2.30
2018-05-07T10:34:06.312Z,2.83
2018-05-07T10:36:33.923Z,2.83
2018-05-07T10:39:02.597Z,2.70
2018-05-07T10:41:31.045Z,2.83
2018-05-07T10:43:59.150Z,2.37
2018-05-07T10:46:27.572Z,3.07
2018-05-07T10:48:55.666Z,2.87
2018-05-07T10:51:23.390Z,2.17
2018-05-07T10:53:52.868Z,2.50
2018-05-07T10:56:20.934Z,3.00
2018-05-07T10:58:48.642Z,2.67
2018-05-07T11:01:17.057Z,2.87
2018-05-07T11:09:34.231Z,3.20
2018-05-07T11:12:02.314Z,2.47
2018-05-07T11:14:30.497Z,2.50
2018-05-07T11:16:58.914Z,2.37
2018-05-07T11:19:26.651Z,2.20
2018-05-07T11:21:55.800Z,2.50
2018-05-07T11:24:25.201Z,2.17
2018-05-07T11:26:54.093Z,2.57
2018-05-07T11:29:24.299Z,2.40
2018-05-07T11:31:51.952Z,2.63
2018-05-07T11:34:20.556Z,2.60
2018-05-07T11:36:48.221Z,2.60
2018-05-07T11:39:16.609Z,2.20
2018-05-07T11:41:45.767Z,2.73
2018-05-07T11:44:15.934Z,2.60
2018-05-07T11:46:44.072Z,2.73
2018-05-07T11:49:12.226Z,2.60
2018-05-07T11:51:41.232Z,2.30
2018-05-07T11:54:10.684Z,2.00
2018-05-07T11:56:39.648Z,2.40
2018-05-07T11:59:08.103Z,2.83
2018-05-07T12:01:36.234Z,2.43
2018-05-07T12:04:04.354Z,2.90
2018-05-07T12:06:32.000Z,2.90
2018-05-07T12:09:01.087Z,2.70
2018-05-07T12:11:29.839Z,2.67
2018-05-07T12:13:58.323Z,2.60
2018-05-07T12:16:25.972Z,2.23
2018-05-07T12:18:54.633Z,2.70
2018-05-07T12:21:22.886Z,2.27
2018-05-07T12:23:52.307Z,2.80
2018-05-07T12:26:20.757Z,2.80
2018-05-07T12:28:48.824Z,3.07
2018-05-07T12:31:17.360Z,2.73
2018-05-07T12:33:46.313Z,2.50
2018-05-07T12:36:15.474Z,2.33
2018-05-07T12:38:44.118Z,2.40
2018-05-07T12:41:12.186Z,2.07
2018-05-07T12:43:39.896Z,2.40
2018-05-07T12:46:08.934Z,2.13
2018-05-07T12:48:38.511Z,2.47
2018-05-07T12:51:07.352Z,2.73
2018-05-07T12:53:37.162Z,2.90
2018-05-07T12:56:04.845Z,2.87
2018-05-07T12:58:33.335Z,2.70
2018-05-07T13:01:02.502Z,2.40
2018-05-07T13:03:35.697Z,2.03
2018-05-07T13:06:03.862Z,2.20
2018-05-07T13:08:33.306Z,2.40
2018-05-07T13:11:02.352Z,2.10
2018-05-07T13:13:30.495Z,2.20
2018-05-07T13:15:59.277Z,2.13
2018-05-07T13:18:27.391Z,2.40
2018-05-07T13:20:55.844Z,2.10
2018-05-07T13:23:25.593Z,2.10
2018-05-07T13:25:54.616Z,2.20
2018-05-07T13:28:27.269Z,2.33
2018-05-07T13:30:55.787Z,2.63
2018-05-07T13:33:25.313Z,2.80
2018-05-07T13:35:53.768Z,2.47
2018-05-07T13:38:24.603Z,2.30
2018-05-07T13:40:52.669Z,2.60
2018-05-07T13:43:20.850Z,2.23
2018-05-07T13:45:49.355Z,2.57
2018-05-07T13:48:28.680Z,2.47
2018-05-07T13:50:57.375Z,2.10
2018-05-07T13:53:25.520Z,2.40
2018-05-07T13:55:53.583Z,2.60
2018-05-07T13:58:26.710Z,2.50
2018-05-07T14:00:55.603Z,2.77
2018-05-07T14:03:34.200Z,1.97
2018-05-07T14:06:03.418Z,2.33
2018-05-07T14:08:52.361Z,2.33
2018-05-07T14:11:20.439Z,2.50
2018-05-07T14:14:06.098Z,2.23
2018-05-07T14:16:33.743Z,2.53
2018-05-07T14:19:05.333Z,2.23
2018-05-07T14:21:33.405Z,2.50
2018-05-07T14:24:01.176Z,2.40
2018-05-07T14:26:29.260Z,2.27
2018-05-07T14:28:59.314Z,2.20
2018-05-07T14:31:27.033Z,1.60
2018-05-07T14:33:56.082Z,1.90
2018-05-07T14:36:24.527Z,1.50
2018-05-07T14:38:54.062Z,1.67
2018-05-07T14:41:24.278Z,1.60
2018-05-07T14:44:16.111Z,2.07
2018-05-07T14:46:44.933Z,1.60
2018-05-07T14:49:14.612Z,1.30
2018-05-07T14:51:43.011Z,1.60
2018-05-07T14:54:15.197Z,1.50
2018-05-07T14:56:43.250Z,1.77
2018-05-07T14:59:11.916Z,1.83
2018-05-07T15:01:39.625Z,1.73
2018-05-07T15:04:17.530Z,1.77
2018-05-07T15:06:46.267Z,1.50
2018-05-07T15:09:15.325Z,1.77
2018-05-07T15:11:43.737Z,1.70
2018-05-07T15:14:18.814Z,1.80
2018-05-07T15:16:47.238Z,1.70
2018-05-07T15:19:17.676Z,1.77
2018-05-07T15:21:45.352Z,1.67
2018-05-07T15:24:15.264Z,1.73
2018-05-07T15:26:42.942Z,1.50
2018-05-07T15:29:18.327Z,1.70
2018-05-07T15:31:45.972Z,1.60
2018-05-07T15:34:14.385Z,1.63
2018-05-07T15:36:43.418Z,1.50
2018-05-07T15:39:11.098Z,1.67
2018-05-07T15:41:40.444Z,1.77
2018-05-07T15:44:12.734Z,1.75
2018-05-07T15:46:41.189Z,2.28
2018-05-07T15:49:12.308Z,3.05
2018-05-07T15:51:40.089Z,2.78
2018-05-07T15:54:09.530Z,2.20
2018-05-07T15:56:37.189Z,1.98
2018-05-07T15:59:08.520Z,1.80
2018-05-07T16:01:36.937Z,2.25
2018-05-07T16:04:14.934Z,1.55
2018-05-07T16:06:44.107Z,1.52
2018-05-07T16:09:17.812Z,1.50
2018-05-07T16:11:45.504Z,1.52
2018-05-07T16:14:14.607Z,1.50
2018-05-07T16:16:42.702Z,1.48
2018-05-07T16:19:12.650Z,1.77
2018-05-07T16:21:40.414Z,1.60
2018-05-07T16:24:08.992Z,1.50
2018-05-07T16:26:37.151Z,1.70
2018-05-07T16:29:05.783Z,1.58
2018-05-07T16:31:33.521Z,1.70
2018-05-07T16:34:05.806Z,1.30
2018-05-07T16:36:33.458Z,1.90
2018-05-07T16:39:06.060Z,1.40
2018-05-07T16:41:35.244Z,3.42
2018-05-07T16:44:03.552Z,1.67
2018-05-07T16:46:32.740Z,2.00
2018-05-07T16:49:02.240Z,1.70
2018-05-07T16:51:30.649Z,1.50
2018-05-07T16:54:14.956Z,1.42
2018-05-07T16:56:42.753Z,1.48
2018-05-07T16:59:22.128Z,1.70
2018-05-07T17:01:49.905Z,1.40
2018-05-07T17:04:18.349Z,1.50
2018-05-07T17:06:45.998Z,1.40
2018-05-07T17:09:15.787Z,1.58
2018-05-07T17:11:43.840Z,1.40
2018-05-07T17:14:11.649Z,1.45
2018-05-07T17:16:39.987Z,1.70
2018-05-07T17:19:29.440Z,1.60
2018-05-07T17:21:57.529Z,1.55
2018-05-07T17:24:29.110Z,1.40
2018-05-07T17:26:57.182Z,1.55
2018-05-07T17:29:30.550Z,1.52
2018-05-07T17:31:58.989Z,2.00
2018-05-07T17:34:38.084Z,1.77
2018-05-07T17:37:06.531Z,1.52
2018-05-07T17:39:47.191Z,1.85
2018-05-07T17:42:15.675Z,1.67
2018-05-07T17:44:57.240Z,1.60
2018-05-07T17:47:37.952Z,1.60
2018-05-07T17:50:06.413Z,1.80
2018-05-07T17:52:34.910Z,1.47
2018-05-07T17:55:03.328Z,1.87
2018-05-07T18:00:24.466Z,1.87
2018-05-07T18:02:53.293Z,1.70
2018-05-07T18:05:35.819Z,1.80
2018-05-07T18:08:04.403Z,2.07
2018-05-07T18:10:37.452Z,1.87
2018-05-07T18:13:05.569Z,1.70
2018-05-07T18:18:33.004Z,2.20
2018-05-07T18:21:00.728Z,2.00
2018-05-07T18:23:30.093Z,2.13
2018-05-07T18:25:58.529Z,2.23
2018-05-07T18:28:43.356Z,1.97
2018-05-07T18:31:11.427Z,2.20
2018-05-07T18:33:52.880Z,2.00
2018-05-07T18:36:22.077Z,2.07
2018-05-07T18:39:08.497Z,2.00
2018-05-07T18:41:36.161Z,1.90
2018-05-07T18:44:10.677Z,1.63
2018-05-07T18:46:38.389Z,1.70
2018-05-07T18:49:06.478Z,2.40
2018-05-07T18:51:34.134Z,2.00
2018-05-07T18:54:07.796Z,2.07
2018-05-07T18:56:37.015Z,2.10
2018-05-07T18:59:09.924Z,2.17
2018-05-07T19:01:37.605Z,2.07
2018-05-07T19:04:05.690Z,2.37
2018-05-07T19:06:33.773Z,2.20
2018-05-07T19:09:02.817Z,2.27
2018-05-07T19:11:31.631Z,2.40
2018-05-07T19:14:00.097Z,2.13
2018-05-07T19:16:29.028Z,2.17
2018-05-07T19:19:02.576Z,2.00
2018-05-07T19:21:31.155Z,2.03
2018-05-07T19:24:04.435Z,2.00
2018-05-07T19:26:32.880Z,1.70
2018-05-07T19:29:01.701Z,1.63
2018-05-07T19:31:29.413Z,2.10
2018-05-07T19:33:59.621Z,2.07
2018-05-07T19:36:28.123Z,2.10
2018-05-07T19:38:58.513Z,2.17
2018-05-07T19:41:26.920Z,1.97
2018-05-07T19:43:55.629Z,1.67
2018-05-07T19:46:23.684Z,2.10
2018-05-07T19:49:02.806Z,2.30
2018-05-07T19:51:31.829Z,2.50
2018-05-07T19:54:04.228Z,2.10
2018-05-07T19:56:32.288Z,2.27
2018-05-07T19:59:04.372Z,2.20
2018-05-07T20:01:32.016Z,2.30
2018-05-07T20:04:01.537Z,2.00
2018-05-07T20:06:29.949Z,2.23
2018-05-07T20:08:58.580Z,1.90
2018-05-07T20:11:27.053Z,2.20
2018-05-07T20:13:59.087Z,1.90
2018-05-07T20:16:27.518Z,1.80
2018-05-07T20:18:57.276Z,2.10
2018-05-07T20:21:25.723Z,2.23
2018-05-07T20:23:58.764Z,2.00
2018-05-07T20:26:27.197Z,2.10
2018-05-07T20:28:58.118Z,2.10
2018-05-07T20:31:25.834Z,2.40
2018-05-07T20:33:56.712Z,2.00
2018-05-07T20:36:25.229Z,1.90
2018-05-07T20:38:53.755Z,1.80
2018-05-07T20:41:21.833Z,2.33
2018-05-07T20:43:52.326Z,2.03
2018-05-07T20:46:19.988Z,2.13
2018-05-07T20:48:56.111Z,2.60
2018-05-07T20:51:24.906Z,1.97
2018-05-07T20:53:54.139Z,2.00
2018-05-07T20:56:22.929Z,2.00
2018-05-07T20:58:50.605Z,2.10
2018-05-07T21:01:19.603Z,2.00
2018-05-07T21:03:54.327Z,2.10
2018-05-07T21:06:22.782Z,2.40
2018-05-07T21:09:04.049Z,2.40
2018-05-07T21:11:32.502Z,2.27
2018-05-07T21:16:57.687Z,2.10
2018-05-07T21:19:26.121Z,2.10
2018-05-07T21:21:55.325Z,2.20
2018-05-07T21:24:36.144Z,2.50
2018-05-07T21:27:05.375Z,2.83
2018-05-07T21:29:41.906Z,2.60
2018-05-07T21:32:10.451Z,2.60
2018-05-07T21:34:45.946Z,1.93
2018-05-07T21:37:14.501Z,2.53
2018-05-07T21:39:51.953Z,2.30
2018-05-07T21:42:20.801Z,2.30
2018-05-07T21:44:50.016Z,2.63
2018-05-07T21:47:19.217Z,2.33
2018-05-07T21:49:47.689Z,2.47
2018-05-07T21:52:15.395Z,2.67
2018-05-07T21:54:51.550Z,2.40
2018-05-07T21:57:20.036Z,2.70
2018-05-07T22:00:00.615Z,2.90
2018-05-07T22:02:29.570Z,3.10
2018-05-07T22:04:58.695Z,2.73
2018-05-07T22:07:27.252Z,2.90
2018-05-07T22:10:03.510Z,2.87
2018-05-07T22:12:31.146Z,2.93
2018-05-07T22:15:01.131Z,2.80
2018-05-07T22:17:29.237Z,2.90
2018-05-07T22:19:57.870Z,2.97
2018-05-07T22:22:28.305Z,3.30
2018-05-07T22:25:03.064Z,2.77
2018-05-07T22:27:31.470Z,2.83
2018-05-07T22:30:03.735Z,2.77
2018-05-07T22:32:31.790Z,3.00
2018-05-07T22:35:06.934Z,2.90
2018-05-07T22:37:36.094Z,3.27
2018-05-07T22:40:17.464Z,2.93
2018-05-07T22:42:45.977Z,3.03
2018-05-07T22:45:14.528Z,3.20
2018-05-07T22:47:43.569Z,3.33
2018-05-07T22:53:05.353Z,3.20
2018-05-07T22:55:34.404Z,2.90
2018-05-07T22:58:02.872Z,3.77
2018-05-07T23:00:31.307Z,2.90
2018-05-07T23:03:10.400Z,2.77
2018-05-07T23:05:38.830Z,3.37
2018-05-07T23:08:20.052Z,3.33
2018-05-07T23:10:48.458Z,3.73
2018-05-07T23:13:37.150Z,3.60
2018-05-07T23:16:05.599Z,3.20
2018-05-07T23:18:34.696Z,3.30
2018-05-07T23:21:03.123Z,2.90
2018-05-07T23:23:34.917Z,3.20
2018-05-07T23:26:03.020Z,3.03
2018-05-07T23:28:38.467Z,3.30
2018-05-07T23:31:06.924Z,3.13
2018-05-07T23:33:35.624Z,3.23
2018-05-07T23:36:03.288Z,3.37
2018-05-07T23:38:37.981Z,3.10
2018-05-07T23:41:06.402Z,2.97
2018-05-07T23:43:39.936Z,3.07
2018-05-07T23:46:08.346Z,3.47
2018-05-07T23:48:56.110Z,3.27
2018-05-07T23:51:24.907Z,3.30
2018-05-07T23:54:04.516Z,2.90
2018-05-07T23:56:32.151Z,3.60
2018-05-07T23:59:07.450Z,3.00
